Time;durP1;ratioP1;P1;durP2;ratioP2;P2;SDS_P1;SDS_P2;PMS_P1;PMS_P2;Temp;Humidity;BMP_temperature;BMP_pressure;BME280_temperature;BME280_humidity;BME280_pressure;Samples;Min_cycle;Max_cycle;Signal;HPM_P1;HPM_P2
2021/10/03 00:01:57;;;;;;;1.15;0.65;;;16.80;96.10;;;;;;5113844;28;20016;-76
2021/10/03 00:04:25;;;;;;;0.85;0.55;;;16.80;96.10;;;;;;5113635;28;20054;-76
2021/10/03 00:06:53;;;;;;;0.82;0.82;;;16.80;96.00;;;;;;5114348;28;20039;-76
2021/10/03 00:09:18;;;;;;;0.80;0.60;;;16.80;96.00;;;;;;5120539;28;20020;-76
2021/10/03 00:11:49;;;;;;;0.45;0.45;;;16.80;96.00;;;;;;5120221;28;20369;-76
2021/10/03 00:14:16;;;;;;;0.55;0.55;;;16.90;96.00;;;;;;5120384;28;20026;-77
2021/10/03 00:16:43;;;;;;;0.40;0.40;;;16.90;96.00;;;;;;5102152;28;20064;-77
2021/10/03 00:19:08;;;;;;;0.65;0.52;;;16.90;95.90;;;;;;5120545;28;20055;-76
2021/10/03 00:21:34;;;;;;;0.50;0.50;;;17.00;95.90;;;;;;5119905;27;20043;-76
2021/10/03 00:24:00;;;;;;;0.93;0.60;;;17.00;95.90;;;;;;5120417;28;20068;-75
2021/10/03 00:26:25;;;;;;;0.50;0.50;;;17.00;95.90;;;;;;5120281;28;20028;-77
2021/10/03 00:28:51;;;;;;;0.60;0.60;;;17.00;95.90;;;;;;5120460;28;20032;-78
2021/10/03 00:31:17;;;;;;;0.40;0.40;;;17.00;95.90;;;;;;5120257;28;20028;-74
2021/10/03 00:33:43;;;;;;;0.60;0.60;;;17.00;95.90;;;;;;5120308;28;20498;-77
2021/10/03 00:36:08;;;;;;;0.80;0.80;;;17.10;95.90;;;;;;5119835;28;20098;-76
2021/10/03 00:38:34;;;;;;;0.43;0.43;;;17.10;95.80;;;;;;5120218;28;20051;-76
2021/10/03 00:41:00;;;;;;;0.98;0.93;;;17.10;95.80;;;;;;5120341;28;20023;-77
2021/10/03 00:43:26;;;;;;;0.93;0.57;;;17.10;95.80;;;;;;5120089;27;20044;-74
2021/10/03 00:45:51;;;;;;;0.40;0.40;;;17.20;95.80;;;;;;5120118;28;20121;-75
2021/10/03 00:48:17;;;;;;;0.40;0.40;;;17.20;95.80;;;;;;5120169;28;20101;-76
2021/10/03 00:50:44;;;;;;;0.40;0.40;;;17.20;95.80;;;;;;5119693;27;20031;-75
2021/10/03 00:53:11;;;;;;;0.50;0.50;;;17.20;95.70;;;;;;5120011;28;20023;-75
2021/10/03 00:55:37;;;;;;;0.45;0.45;;;17.20;95.70;;;;;;5120027;28;20037;-76
2021/10/03 00:58:04;;;;;;;0.50;0.50;;;17.30;95.70;;;;;;5120028;28;20020;-75
2021/10/03 01:00:31;;;;;;;0.55;0.55;;;17.30;95.70;;;;;;5119923;28;20492;-75
2021/10/03 01:02:58;;;;;;;1.00;0.40;;;17.30;95.70;;;;;;5119831;27;20027;-75
2021/10/03 01:05:24;;;;;;;0.60;0.60;;;17.30;95.70;;;;;;5101208;28;20057;-77
2021/10/03 01:07:50;;;;;;;0.47;0.47;;;17.30;95.60;;;;;;5101571;28;20031;-75
2021/10/03 01:10:22;;;;;;;0.40;0.40;;;17.30;95.60;;;;;;5119702;28;20030;-75
2021/10/03 01:12:52;;;;;;;0.60;0.60;;;17.40;95.60;;;;;;5120035;28;20102;-75
2021/10/03 01:15:18;;;;;;;0.98;0.65;;;17.40;95.60;;;;;;5119947;28;20076;-75
2021/10/03 01:17:44;;;;;;;0.63;0.40;;;17.40;95.60;;;;;;5119762;28;20096;-76
2021/10/03 01:20:10;;;;;;;0.40;0.40;;;17.40;95.60;;;;;;5115793;28;20153;-75
2021/10/03 01:22:36;;;;;;;0.63;0.45;;;17.40;95.50;;;;;;5098423;28;20092;-75
2021/10/03 01:25:03;;;;;;;0.57;0.32;;;17.40;95.50;;;;;;5116567;28;20085;-75
2021/10/03 01:27:29;;;;;;;0.30;0.30;;;17.40;95.50;;;;;;5116502;28;20030;-76
2021/10/03 01:29:54;;;;;;;0.60;0.47;;;17.30;95.50;;;;;;5116591;28;20031;-76
2021/10/03 01:32:20;;;;;;;0.65;0.40;;;17.30;95.50;;;;;;5098067;28;20028;-76
2021/10/03 01:34:45;;;;;;;0.43;0.43;;;17.30;95.60;;;;;;5115920;28;20026;-76
2021/10/03 01:37:11;;;;;;;0.30;0.28;;;17.30;95.60;;;;;;5116290;28;20429;-76
2021/10/03 01:39:39;;;;;;;0.30;0.30;;;17.20;95.60;;;;;;5116273;28;20375;-75
2021/10/03 01:42:05;;;;;;;0.28;0.28;;;17.20;95.60;;;;;;5116180;28;20020;-76
2021/10/03 01:44:30;;;;;;;0.50;0.50;;;17.20;95.70;;;;;;5116153;28;20107;-77
2021/10/03 01:46:56;;;;;;;0.75;0.57;;;17.20;95.70;;;;;;5115894;28;20042;-76
2021/10/03 01:49:21;;;;;;;0.47;0.47;;;17.10;95.70;;;;;;5115703;28;20026;-77
2021/10/03 01:51:47;;;;;;;0.40;0.40;;;17.10;95.70;;;;;;5115993;28;20020;-76
2021/10/03 01:54:12;;;;;;;0.32;0.32;;;17.10;95.70;;;;;;5115969;28;20069;-77
2021/10/03 01:56:40;;;;;;;0.47;0.47;;;17.10;95.70;;;;;;5097547;28;20106;-79
2021/10/03 01:59:06;;;;;;;0.40;0.40;;;17.10;95.70;;;;;;5115976;28;20031;-77
2021/10/03 02:01:42;;;;;;;0.45;0.45;;;17.10;95.70;;;;;;5116068;28;20019;-80
2021/10/03 02:04:14;;;;;;;0.45;0.45;;;17.10;95.70;;;;;;5115450;28;20015;-78
2021/10/03 02:06:45;;;;;;;0.47;0.32;;;17.10;95.70;;;;;;5115633;28;20028;-79
2021/10/03 02:09:12;;;;;;;0.40;0.40;;;17.10;95.70;;;;;;5115810;28;20058;-79
2021/10/03 02:11:41;;;;;;;0.30;0.30;;;17.10;95.70;;;;;;5115518;28;20043;-77
2021/10/03 02:14:07;;;;;;;0.52;0.52;;;17.10;95.70;;;;;;5115608;28;20103;-79
2021/10/03 02:16:33;;;;;;;0.30;0.30;;;17.10;95.70;;;;;;5115511;28;20035;-79
2021/10/03 02:18:59;;;;;;;0.35;0.35;;;17.10;95.70;;;;;;5096695;28;20016;-79
2021/10/03 02:21:27;;;;;;;0.52;0.50;;;17.10;95.70;;;;;;5115697;28;20024;-78
2021/10/03 02:23:53;;;;;;;0.30;0.30;;;17.10;95.70;;;;;;5115457;28;20055;-78
2021/10/03 02:26:18;;;;;;;0.55;0.50;;;17.10;95.70;;;;;;5115397;28;20511;-78
2021/10/03 02:28:44;;;;;;;0.60;0.60;;;17.10;95.80;;;;;;5115155;28;20016;-77
2021/10/03 02:31:11;;;;;;;0.30;0.30;;;17.10;95.80;;;;;;5114165;28;20107;-77
2021/10/03 02:33:38;;;;;;;0.57;0.40;;;17.10;95.80;;;;;;5114847;28;20012;-77
2021/10/03 02:36:05;;;;;;;0.32;0.32;;;17.10;95.80;;;;;;5115323;28;20068;-76
2021/10/03 02:38:30;;;;;;;0.32;0.32;;;17.10;95.80;;;;;;5115319;28;20030;-78
2021/10/03 02:40:58;;;;;;;0.55;0.55;;;17.10;95.80;;;;;;5114974;28;20023;-78
2021/10/03 02:43:27;;;;;;;0.52;0.50;;;17.10;95.80;;;;;;5115093;28;20137;-76
2021/10/03 02:45:53;;;;;;;0.68;0.32;;;17.10;95.90;;;;;;5095765;28;20484;-78
2021/10/03 02:48:22;;;;;;;0.52;0.52;;;17.00;95.90;;;;;;5115001;28;20035;-78
2021/10/03 02:50:48;;;;;;;0.40;0.40;;;17.00;95.90;;;;;;5115030;28;20042;-78
2021/10/03 02:53:16;;;;;;;0.20;0.20;;;17.00;95.90;;;;;;5114725;28;20023;-79
2021/10/03 02:55:42;;;;;;;0.35;0.35;;;17.00;95.90;;;;;;5114998;28;20058;-80
2021/10/03 02:58:08;;;;;;;0.20;0.20;;;17.00;95.90;;;;;;5096518;28;20051;-77
2021/10/03 03:00:36;;;;;;;0.47;0.43;;;17.00;95.90;;;;;;5114241;28;20380;-77
2021/10/03 03:03:02;;;;;;;0.68;0.40;;;17.00;95.90;;;;;;5096330;28;20032;-78
2021/10/03 03:05:28;;;;;;;0.40;0.40;;;17.00;95.90;;;;;;5114838;28;20038;-77
2021/10/03 03:07:53;;;;;;;0.50;0.50;;;17.00;95.90;;;;;;5115558;28;20027;-76
2021/10/03 03:10:19;;;;;;;0.30;0.30;;;17.00;95.90;;;;;;5114697;28;20488;-79
2021/10/03 03:12:44;;;;;;;0.52;0.52;;;17.00;95.90;;;;;;5114356;28;20536;-77
2021/10/03 03:15:10;;;;;;;0.30;0.30;;;17.00;95.90;;;;;;5114090;28;20023;-77
2021/10/03 03:17:36;;;;;;;0.55;0.55;;;17.00;95.90;;;;;;5114457;28;20028;-80
2021/10/03 03:20:03;;;;;;;0.30;0.30;;;17.00;96.00;;;;;;5114364;28;20484;-76
2021/10/03 03:22:29;;;;;;;0.50;0.50;;;17.00;96.00;;;;;;5096074;28;20016;-78
2021/10/03 03:24:55;;;;;;;0.65;0.65;;;17.00;96.00;;;;;;5114097;28;20016;-78
2021/10/03 03:27:20;;;;;;;0.28;0.28;;;17.00;96.00;;;;;;5095801;28;20494;-78
2021/10/03 03:29:46;;;;;;;0.70;0.70;;;17.00;96.00;;;;;;5113840;28;20015;-77
2021/10/03 03:32:11;;;;;;;0.43;0.43;;;17.00;96.00;;;;;;5113980;28;20035;-78
2021/10/03 03:34:37;;;;;;;0.52;0.52;;;17.00;96.00;;;;;;5114215;28;20020;-77
2021/10/03 03:37:03;;;;;;;0.55;0.45;;;17.00;96.00;;;;;;5114129;28;20088;-78
2021/10/03 03:39:28;;;;;;;0.80;0.80;;;17.00;96.00;;;;;;5114030;28;20517;-78
2021/10/03 03:41:54;;;;;;;0.52;0.52;;;17.00;96.00;;;;;;5113640;28;20026;-79
2021/10/03 03:44:20;;;;;;;0.57;0.57;;;17.00;96.00;;;;;;5113498;28;20107;-77
2021/10/03 03:46:45;;;;;;;0.60;0.60;;;17.00;96.00;;;;;;5113757;28;20062;-78
2021/10/03 03:49:11;;;;;;;0.80;0.75;;;17.00;96.00;;;;;;5113812;28;20420;-78
2021/10/03 03:51:37;;;;;;;0.43;0.43;;;17.00;95.90;;;;;;5113936;28;20024;-79
2021/10/03 03:54:02;;;;;;;0.57;0.52;;;17.00;95.80;;;;;;5113716;28;20024;-80
2021/10/03 03:56:28;;;;;;;0.40;0.40;;;16.90;95.80;;;;;;5113847;28;20026;-80
2021/10/03 03:58:53;;;;;;;0.30;0.30;;;16.80;95.90;;;;;;5113463;28;20023;-80
2021/10/03 04:01:20;;;;;;;0.20;0.20;;;16.60;95.90;;;;;;5113709;28;20034;-81
2021/10/03 04:03:46;;;;;;;0.40;0.38;;;16.50;96.20;;;;;;5113671;28;20099;-81
2021/10/03 04:06:11;;;;;;;0.50;0.50;;;16.40;96.30;;;;;;5113656;28;20067;-80
2021/10/03 04:08:38;;;;;;;0.22;0.20;;;16.30;96.20;;;;;;5113689;28;20035;-80
2021/10/03 04:11:04;;;;;;;0.30;0.22;;;16.20;96.30;;;;;;5095262;28;20101;-81
2021/10/03 04:13:30;;;;;;;0.20;0.20;;;16.20;96.30;;;;;;5094927;28;20421;-79
2021/10/03 04:15:55;;;;;;;0.10;0.10;;;16.10;96.40;;;;;;5113550;28;20098;-79
2021/10/03 04:18:21;;;;;;;0.20;0.20;;;16.10;96.30;;;;;;5113554;28;20066;-80
2021/10/03 04:20:46;;;;;;;0.30;0.30;;;16.00;96.40;;;;;;5113743;28;20027;-79
2021/10/03 04:23:12;;;;;;;0.20;0.20;;;15.80;96.40;;;;;;5113593;28;20084;-79
2021/10/03 04:25:37;;;;;;;0.32;0.32;;;15.70;96.50;;;;;;5113322;28;20031;-79
2021/10/03 04:28:03;;;;;;;0.28;0.28;;;15.60;96.50;;;;;;5112930;28;20023;-78
2021/10/03 04:30:29;;;;;;;0.20;0.20;;;15.50;96.40;;;;;;5113438;28;20100;-79
2021/10/03 04:32:54;;;;;;;0.20;0.10;;;15.40;96.60;;;;;;5113490;28;20088;-79
2021/10/03 04:35:20;;;;;;;0.15;0.15;;;15.30;96.60;;;;;;5113309;28;20055;-78
2021/10/03 04:37:45;;;;;;;0.10;0.10;;;15.30;96.60;;;;;;5113348;28;20421;-79
2021/10/03 04:40:11;;;;;;;0.15;0.15;;;15.20;96.60;;;;;;5113379;28;20023;-79
2021/10/03 04:42:37;;;;;;;0.10;0.10;;;15.20;96.60;;;;;;5113027;28;20028;-79
2021/10/03 04:45:03;;;;;;;0.10;0.10;;;15.20;96.50;;;;;;5113262;28;20084;-79
2021/10/03 04:47:29;;;;;;;0.10;0.10;;;15.20;96.50;;;;;;5113263;28;20051;-78
2021/10/03 04:49:54;;;;;;;0.20;0.20;;;15.10;96.50;;;;;;5113425;28;20112;-79
2021/10/03 04:52:25;;;;;;;0.20;0.20;;;15.10;96.60;;;;;;5113234;28;20024;-78
2021/10/03 04:54:51;;;;;;;0.00;0.00;;;15.10;96.60;;;;;;5097054;28;20024;-79
2021/10/03 04:57:17;;;;;;;1.00;0.30;;;15.10;96.60;;;;;;5116736;28;20016;-78
2021/10/03 04:59:42;;;;;;;0.13;0.13;;;15.10;96.60;;;;;;5116987;28;20495;-79
2021/10/03 05:02:07;;;;;;;0.65;0.20;;;15.10;96.50;;;;;;5098816;28;20026;-78
2021/10/03 05:04:33;;;;;;;0.20;0.13;;;15.10;96.50;;;;;;5098708;28;20042;-80
2021/10/03 05:06:58;;;;;;;0.35;0.25;;;15.10;96.50;;;;;;5116877;28;20104;-77
2021/10/03 05:09:24;;;;;;;0.22;0.20;;;15.10;96.50;;;;;;5098511;28;20023;-79
2021/10/03 05:11:49;;;;;;;0.20;0.20;;;15.10;96.50;;;;;;5116346;28;20047;-80
2021/10/03 05:14:16;;;;;;;0.17;0.10;;;15.10;96.50;;;;;;5116787;28;20066;-78
2021/10/03 05:16:41;;;;;;;0.20;0.20;;;15.10;96.50;;;;;;5116891;28;20530;-78
2021/10/03 05:19:07;;;;;;;0.15;0.10;;;15.10;96.40;;;;;;5116622;28;20031;-79
2021/10/03 05:21:32;;;;;;;0.40;0.05;;;15.10;96.40;;;;;;5098293;28;20360;-78
2021/10/03 05:23:58;;;;;;;0.13;0.10;;;15.10;96.40;;;;;;5116624;28;20015;-79
2021/10/03 05:26:24;;;;;;;0.20;0.20;;;15.10;96.40;;;;;;5116100;28;20031;-78
2021/10/03 05:28:49;;;;;;;0.28;0.28;;;15.10;96.40;;;;;;5116464;28;20472;-78
2021/10/03 05:31:15;;;;;;;0.30;0.30;;;15.10;96.40;;;;;;5098102;28;20465;-77
2021/10/03 05:33:40;;;;;;;0.10;0.10;;;15.10;96.40;;;;;;5116527;28;20533;-79
2021/10/03 05:36:06;;;;;;;0.20;0.20;;;15.00;96.40;;;;;;5116361;28;20027;-80
2021/10/03 05:38:32;;;;;;;0.22;0.22;;;15.00;96.40;;;;;;5116522;28;20024;-80
2021/10/03 05:41:00;;;;;;;0.30;0.30;;;15.10;96.40;;;;;;5097520;28;20467;-81
2021/10/03 05:43:26;;;;;;;0.10;0.10;;;15.00;96.30;;;;;;5116138;28;20024;-81
2021/10/03 05:45:51;;;;;;;0.35;0.35;;;15.00;96.30;;;;;;5116147;28;20039;-82
2021/10/03 05:48:19;;;;;;;0.20;0.20;;;15.00;96.40;;;;;;5116445;28;20023;-81
2021/10/03 05:50:45;;;;;;;0.28;0.28;;;15.00;96.30;;;;;;5116033;28;20028;-82
2021/10/03 05:53:10;;;;;;;0.20;0.20;;;14.90;96.30;;;;;;5116002;28;20016;-77
2021/10/03 05:55:36;;;;;;;0.20;0.10;;;15.00;96.40;;;;;;5115547;28;20032;-81
2021/10/03 05:58:01;;;;;;;0.50;0.20;;;14.90;96.30;;;;;;5097774;28;20023;-80
2021/10/03 06:00:30;;;;;;;0.57;0.57;;;14.90;96.30;;;;;;5115927;28;20027;-81
2021/10/03 06:02:55;;;;;;;0.37;0.20;;;14.90;96.20;;;;;;5115977;28;20034;-80
2021/10/03 06:05:21;;;;;;;0.20;0.10;;;14.90;96.30;;;;;;5096954;28;20043;-81
2021/10/03 06:07:47;;;;;;;0.20;0.20;;;14.80;96.30;;;;;;5097565;28;20392;-82
2021/10/03 06:10:12;;;;;;;0.30;0.22;;;14.80;96.20;;;;;;5115170;28;20103;-80
2021/10/03 06:12:38;;;;;;;0.20;0.20;;;14.80;96.30;;;;;;5115733;28;20023;-81
2021/10/03 06:15:05;;;;;;;0.20;0.20;;;14.70;96.30;;;;;;5097316;28;20031;-80
2021/10/03 06:17:31;;;;;;;0.22;0.17;;;14.70;96.30;;;;;;5115629;28;20016;-82
2021/10/03 06:19:57;;;;;;;0.10;0.10;;;14.70;96.40;;;;;;5115555;28;20149;-83
2021/10/03 06:22:24;;;;;;;0.30;0.30;;;14.70;96.40;;;;;;5097142;28;20031;-82
2021/10/03 06:24:51;;;;;;;0.32;0.32;;;14.70;96.40;;;;;;5114938;28;20023;-80
2021/10/03 06:27:17;;;;;;;0.20;0.20;;;14.70;96.70;;;;;;5115380;28;20384;-82
2021/10/03 06:29:43;;;;;;;0.30;0.30;;;14.70;96.40;;;;;;5115198;28;20023;-81
2021/10/03 06:32:09;;;;;;;0.30;0.30;;;14.70;96.40;;;;;;5097056;28;20024;-79
2021/10/03 06:34:34;;;;;;;0.10;0.10;;;14.70;96.40;;;;;;5115326;28;20077;-80
2021/10/03 06:37:00;;;;;;;0.20;0.20;;;14.70;96.30;;;;;;5115223;28;20468;-80
2021/10/03 06:39:25;;;;;;;0.45;0.20;;;14.70;96.40;;;;;;5114635;28;20521;-82
2021/10/03 06:41:51;;;;;;;0.52;0.40;;;14.70;96.40;;;;;;5096814;28;20036;-80
2021/10/03 06:44:17;;;;;;;0.75;0.30;;;14.70;96.40;;;;;;5114896;28;20024;-80
2021/10/03 06:46:42;;;;;;;0.32;0.22;;;14.70;96.40;;;;;;5114979;28;20129;-81
2021/10/03 06:49:08;;;;;;;0.10;0.10;;;14.80;96.40;;;;;;5114980;28;20095;-79
2021/10/03 06:51:35;;;;;;;0.17;0.17;;;14.80;96.40;;;;;;5114940;28;20027;-78
2021/10/03 06:54:01;;;;;;;0.30;0.28;;;14.80;96.30;;;;;;5114215;28;20023;-79
2021/10/03 06:56:26;;;;;;;0.30;0.22;;;14.70;96.30;;;;;;5114866;28;20027;-79
2021/10/03 06:58:52;;;;;;;0.47;0.45;;;14.70;96.40;;;;;;5114666;28;20380;-79
2021/10/03 07:01:17;;;;;;;0.10;0.10;;;14.80;96.50;;;;;;5096524;28;20031;-79
2021/10/03 07:03:43;;;;;;;0.20;0.20;;;14.80;96.50;;;;;;5114889;28;20031;-78
2021/10/03 07:06:08;;;;;;;0.10;0.10;;;14.80;96.40;;;;;;5114466;28;20027;-78
2021/10/03 07:08:34;;;;;;;0.20;0.20;;;14.80;96.40;;;;;;5114018;28;20019;-78
2021/10/03 07:11:00;;;;;;;0.47;0.43;;;14.80;96.40;;;;;;5114519;28;20518;-78
2021/10/03 07:13:25;;;;;;;0.17;0.17;;;14.70;96.30;;;;;;5114530;28;20023;-79
2021/10/03 07:15:51;;;;;;;0.20;0.20;;;14.70;96.50;;;;;;5114604;28;20124;-79
2021/10/03 07:18:17;;;;;;;0.60;0.50;;;14.70;96.50;;;;;;5113734;28;20028;-78
2021/10/03 07:20:43;;;;;;;0.50;0.50;;;14.70;96.50;;;;;;5114236;28;20073;-77
2021/10/03 07:23:09;;;;;;;1.67;0.47;;;14.60;96.60;;;;;;5113678;28;20424;-79
2021/10/03 07:25:35;;;;;;;0.47;0.40;;;14.60;96.60;;;;;;5096014;28;20062;-77
2021/10/03 07:28:00;;;;;;;0.32;0.20;;;14.70;96.70;;;;;;5114214;28;20047;-79
2021/10/03 07:30:26;;;;;;;0.57;0.43;;;14.70;96.60;;;;;;5095824;28;20119;-78
2021/10/03 07:32:51;;;;;;;0.50;0.50;;;14.60;96.50;;;;;;5114280;28;20067;-77
2021/10/03 07:35:17;;;;;;;0.40;0.40;;;14.50;96.50;;;;;;5095860;28;20027;-79
2021/10/03 07:37:43;;;;;;;0.60;0.60;;;14.40;96.80;;;;;;5113428;28;20027;-76
2021/10/03 07:40:09;;;;;;;0.32;0.32;;;14.50;96.90;;;;;;5114029;28;20031;-79
2021/10/03 07:42:36;;;;;;;0.47;0.20;;;14.50;96.80;;;;;;5114042;28;20011;-80
2021/10/03 07:45:03;;;;;;;0.38;0.30;;;14.50;96.80;;;;;;5095673;28;20020;-80
2021/10/03 07:47:29;;;;;;;0.25;0.25;;;14.50;96.80;;;;;;5095695;28;20110;-80
2021/10/03 07:49:54;;;;;;;0.40;0.40;;;14.50;96.80;;;;;;5114004;28;20063;-78
2021/10/03 07:52:19;;;;;;;0.47;0.30;;;14.50;96.70;;;;;;5095041;28;20030;-78
2021/10/03 07:54:45;;;;;;;0.50;0.40;;;14.40;96.90;;;;;;5113938;28;20022;-80
2021/10/03 07:57:12;;;;;;;0.30;0.30;;;14.30;96.90;;;;;;5113841;28;20512;-80
2021/10/03 07:59:38;;;;;;;0.40;0.40;;;14.30;97.00;;;;;;5113684;28;20030;-77
2021/10/03 08:02:03;;;;;;;0.40;0.40;;;14.40;97.00;;;;;;5113645;28;20037;-76
2021/10/03 08:04:29;;;;;;;0.38;0.38;;;14.40;96.90;;;;;;5113912;28;20472;-76
2021/10/03 08:06:54;;;;;;;0.43;0.43;;;14.30;96.90;;;;;;5113170;28;20043;-75
2021/10/03 08:09:20;;;;;;;0.40;0.40;;;14.30;96.90;;;;;;5113626;28;20442;-75
2021/10/03 08:11:45;;;;;;;0.32;0.32;;;14.30;96.90;;;;;;5113338;28;20052;-76
2021/10/03 08:14:11;;;;;;;0.22;0.20;;;14.20;97.00;;;;;;5113602;28;20031;-76
2021/10/03 08:16:36;;;;;;;0.80;0.50;;;14.20;97.00;;;;;;5113685;28;20065;-75
2021/10/03 08:19:03;;;;;;;0.38;0.38;;;14.20;97.10;;;;;;5113628;28;20023;-76
2021/10/03 08:21:29;;;;;;;0.93;0.70;;;14.10;97.10;;;;;;5094886;28;20036;-77
2021/10/03 08:23:55;;;;;;;0.52;0.52;;;14.10;97.10;;;;;;5095178;28;20023;-75
2021/10/03 08:26:21;;;;;;;0.70;0.65;;;14.10;97.20;;;;;;5113496;28;20036;-75
2021/10/03 08:28:47;;;;;;;1.17;0.80;;;14.10;97.30;;;;;;5115542;28;20020;-75
2021/10/03 08:31:13;;;;;;;0.50;0.50;;;14.10;97.20;;;;;;5117640;28;20030;-75
2021/10/03 08:33:38;;;;;;;0.47;0.47;;;14.10;97.10;;;;;;5099130;28;20165;-75
2021/10/03 08:36:04;;;;;;;0.43;0.43;;;14.10;97.10;;;;;;5117088;28;20077;-74
2021/10/03 08:38:30;;;;;;;0.32;0.30;;;14.00;96.90;;;;;;5117403;28;20375;-74
2021/10/03 08:40:56;;;;;;;0.57;0.38;;;13.90;96.80;;;;;;5117546;28;20103;-74
2021/10/03 08:43:21;;;;;;;0.32;0.32;;;13.80;96.90;;;;;;5117391;28;20099;-75
2021/10/03 08:45:47;;;;;;;0.50;0.50;;;13.80;97.10;;;;;;5117407;28;20036;-74
2021/10/03 08:48:15;;;;;;;0.20;0.20;;;13.70;97.10;;;;;;5117176;28;20061;-75
2021/10/03 08:50:43;;;;;;;0.43;0.43;;;13.70;97.00;;;;;;5117070;28;20026;-76
2021/10/03 08:53:09;;;;;;;1.23;0.57;;;13.70;97.00;;;;;;5117198;28;20031;-76
2021/10/03 08:55:35;;;;;;;0.65;0.55;;;13.60;96.90;;;;;;5117252;28;20020;-73
2021/10/03 08:58:01;;;;;;;0.75;0.70;;;13.60;97.10;;;;;;5117228;28;20024;-75
2021/10/03 09:00:27;;;;;;;0.50;0.50;;;13.50;97.10;;;;;;5117054;28;20020;-75
2021/10/03 09:02:57;;;;;;;1.25;0.68;;;13.50;97.20;;;;;;5116404;28;20035;-75
2021/10/03 09:05:24;;;;;;;0.95;0.40;;;13.60;97.20;;;;;;5116867;28;20058;-75
2021/10/03 09:08:01;;;;;;;0.47;0.47;;;13.60;97.20;;;;;;5117019;28;20024;-75
2021/10/03 09:10:27;;;;;;;0.38;0.38;;;13.60;97.10;;;;;;5098550;28;20043;-75
2021/10/03 09:12:59;;;;;;;0.47;0.47;;;13.70;97.20;;;;;;5117461;28;20429;-77
2021/10/03 09:15:25;;;;;;;0.65;0.50;;;13.70;97.10;;;;;;5116716;28;20024;-77
2021/10/03 09:17:55;;;;;;;0.50;0.50;;;13.60;97.10;;;;;;5116227;28;20494;-76
2021/10/03 09:20:24;;;;;;;0.60;0.60;;;13.60;97.10;;;;;;5098527;28;20024;-76
2021/10/03 09:23:14;;;;;;;0.50;0.50;;;13.60;97.20;;;;;;5116672;28;20045;-75
2021/10/03 09:25:47;;;;;;;;;;;13.70;97.20;;;;;;5116917;28;20054;-75
2021/10/03 09:28:24;;;;;;;0.60;0.47;;;13.60;97.20;;;;;;5098148;28;19903;-75
2021/10/03 09:31:08;;;;;;;0.40;0.40;;;13.60;97.20;;;;;;5116727;28;20034;-75
2021/10/03 09:33:48;;;;;;;0.75;0.65;;;13.70;97.20;;;;;;5097842;28;20422;-75
2021/10/03 09:36:17;;;;;;;0.88;0.57;;;13.60;97.00;;;;;;5116290;28;20452;-76
2021/10/03 09:38:47;;;;;;;0.60;0.60;;;13.50;97.10;;;;;;5116367;28;20051;-76
2021/10/03 09:41:14;;;;;;;0.63;0.47;;;13.50;97.00;;;;;;5115757;28;20054;-74
2021/10/03 09:43:47;;;;;;;1.02;0.50;;;13.40;97.00;;;;;;5116175;28;20016;-74
2021/10/03 09:46:37;;;;;;;0.70;0.60;;;13.40;97.20;;;;;;5116244;28;20070;-76
2021/10/03 09:49:06;;;;;;;0.57;0.57;;;13.40;97.20;;;;;;5097817;28;20076;-75
2021/10/03 09:51:31;;;;;;;0.50;0.50;;;13.40;97.30;;;;;;5116037;28;20028;-74
2021/10/03 09:53:58;;;;;;;0.40;0.40;;;13.40;97.30;;;;;;5116061;28;20035;-75
2021/10/03 09:56:25;;;;;;;0.40;0.40;;;13.40;97.20;;;;;;5115991;28;20030;-77
2021/10/03 09:58:53;;;;;;;0.28;0.28;;;13.50;97.30;;;;;;5116081;28;20342;-76
2021/10/03 10:01:19;;;;;;;0.40;0.40;;;13.50;97.20;;;;;;5097180;28;20023;-75
2021/10/03 10:03:45;;;;;;;0.30;0.30;;;13.50;97.20;;;;;;5115728;28;20011;-76
2021/10/03 10:06:12;;;;;;;0.10;0.10;;;13.60;97.10;;;;;;5115854;28;20378;-76
2021/10/03 10:08:39;;;;;;;0.30;0.30;;;13.60;97.50;;;;;;5115696;28;20081;-75
2021/10/03 10:11:36;;;;;;;0.28;0.25;;;13.60;97.20;;;;;;5115385;28;20051;-74
2021/10/03 10:14:04;;;;;;;0.10;0.10;;;13.80;97.10;;;;;;5115610;28;20023;-76
2021/10/03 10:16:33;;;;;;;0.30;0.20;;;13.90;97.20;;;;;;5096757;28;20020;-76
2021/10/03 10:19:30;;;;;;;0.10;0.10;;;14.00;97.00;;;;;;5115660;28;20051;-76
2021/10/03 10:22:14;;;;;;;0.17;0.17;;;14.10;96.80;;;;;;5115565;28;20024;-76
2021/10/03 10:24:49;;;;;;;0.10;0.10;;;14.20;96.80;;;;;;5115354;28;20417;-75
2021/10/03 10:27:21;;;;;;;0.17;0.17;;;14.30;96.80;;;;;;5115417;28;20039;-75
2021/10/03 10:30:00;;;;;;;0.22;0.22;;;14.40;96.70;;;;;;5115099;28;20055;-76
2021/10/03 10:32:27;;;;;;;0.20;0.20;;;14.50;96.60;;;;;;5096975;28;20028;-74
2021/10/03 10:35:08;;;;;;;0.08;0.08;;;14.50;96.50;;;;;;5115200;28;20019;-74
2021/10/03 10:37:49;;;;;;;0.25;0.25;;;14.40;96.40;;;;;;5115215;28;20044;-74
2021/10/03 10:40:23;;;;;;;0.10;0.10;;;14.50;96.50;;;;;;5115171;27;20023;-75
2021/10/03 10:42:54;;;;;;;0.17;0.17;;;14.60;96.50;;;;;;5115093;28;20027;-75
2021/10/03 10:45:30;;;;;;;0.20;0.20;;;14.50;96.30;;;;;;5114550;28;20042;-74
2021/10/03 10:48:10;;;;;;;0.10;0.10;;;14.50;96.30;;;;;;5114971;28;20047;-75
2021/10/03 10:50:54;;;;;;;0.10;0.10;;;14.50;96.30;;;;;;5114949;28;20024;-74
2021/10/03 10:53:27;;;;;;;0.05;0.05;;;14.60;96.30;;;;;;5095782;28;20055;-75
2021/10/03 10:56:16;;;;;;;0.22;0.22;;;14.60;96.40;;;;;;5114772;28;20030;-76
2021/10/03 10:58:51;;;;;;;0.30;0.10;;;14.80;96.30;;;;;;5114890;28;20388;-75
2021/10/03 11:01:29;;;;;;;0.40;0.22;;;14.80;96.30;;;;;;5114732;28;20457;-74
2021/10/03 11:03:59;;;;;;;0.00;0.00;;;14.80;96.30;;;;;;5114827;28;20490;-75
2021/10/03 11:06:27;;;;;;;0.10;0.10;;;14.80;96.20;;;;;;5114582;28;20042;-75
2021/10/03 11:09:07;;;;;;;0.08;0.08;;;14.90;96.20;;;;;;5114492;28;20038;-74
2021/10/03 11:11:34;;;;;;;0.10;0.10;;;15.00;96.20;;;;;;5114538;28;20052;-74
2021/10/03 11:14:09;;;;;;;0.10;0.10;;;15.10;96.20;;;;;;5114061;28;20020;-75
2021/10/03 11:16:38;;;;;;;0.20;0.20;;;15.10;96.00;;;;;;5096130;28;20089;-75
2021/10/03 11:19:07;;;;;;;0.20;0.20;;;15.10;95.70;;;;;;5096164;28;20102;-74
2021/10/03 11:21:45;;;;;;;0.30;0.20;;;14.90;95.70;;;;;;5114412;28;20030;-76
2021/10/03 11:24:22;;;;;;;0.20;0.20;;;14.90;95.90;;;;;;5114373;28;20030;-75
2021/10/03 11:26:48;;;;;;;0.30;0.30;;;14.80;96.00;;;;;;5114098;28;20379;-76
2021/10/03 11:29:14;;;;;;;0.20;0.20;;;14.90;96.10;;;;;;5113745;28;20514;-76
2021/10/03 11:31:50;;;;;;;0.20;0.20;;;14.90;96.10;;;;;;5114312;28;20468;-76
2021/10/03 11:34:47;;;;;;;1.02;0.60;;;15.00;96.00;;;;;;5114151;28;20027;-76
2021/10/03 11:37:14;;;;;;;0.40;0.40;;;15.10;95.90;;;;;;5114192;28;20578;-75
2021/10/03 11:39:40;;;;;;;0.57;0.40;;;15.10;96.00;;;;;;5114072;28;20027;-75
2021/10/03 11:42:06;;;;;;;0.68;0.43;;;15.10;96.00;;;;;;5114064;28;20472;-76
2021/10/03 11:44:33;;;;;;;0.30;0.30;;;15.10;96.10;;;;;;5095248;28;20027;-77
2021/10/03 11:46:59;;;;;;;0.40;0.40;;;15.20;96.10;;;;;;5113780;28;20067;-77
2021/10/03 11:49:28;;;;;;;0.63;0.50;;;15.20;96.10;;;;;;5113934;28;20020;-75
2021/10/03 11:51:54;;;;;;;0.28;0.28;;;15.20;96.10;;;;;;5113859;28;20426;-74
2021/10/03 11:54:37;;;;;;;0.43;0.43;;;15.30;96.10;;;;;;5113909;28;20419;-76
2021/10/03 11:57:19;;;;;;;0.52;0.50;;;15.30;96.00;;;;;;5094978;28;20024;-76
2021/10/03 11:59:45;;;;;;;0.90;0.90;;;15.30;96.00;;;;;;5113873;28;20016;-76
2021/10/03 12:02:19;;;;;;;0.82;0.70;;;15.20;96.00;;;;;;5113775;28;20102;-75
2021/10/03 12:04:55;;;;;;;0.93;0.93;;;15.20;96.00;;;;;;5113601;28;20460;-75
2021/10/03 12:07:22;;;;;;;0.80;0.77;;;15.20;96.10;;;;;;5095375;28;20082;-74
2021/10/03 12:10:14;;;;;;;0.70;0.70;;;15.20;96.20;;;;;;5095335;28;20491;-75
2021/10/03 12:12:55;;;;;;;0.50;0.50;;;15.20;96.00;;;;;;5108904;28;20078;-75
2021/10/03 12:15:49;;;;;;;0.50;0.50;;;15.20;96.00;;;;;;5113757;28;20026;-74
2021/10/03 12:18:29;;;;;;;0.40;0.40;;;15.20;96.10;;;;;;5113585;28;20080;-73
2021/10/03 12:21:05;;;;;;;0.25;0.25;;;15.20;96.20;;;;;;5113715;28;20106;-74
2021/10/03 12:23:45;;;;;;;0.22;0.22;;;15.20;96.20;;;;;;5113787;28;20015;-74
2021/10/03 12:26:25;;;;;;;0.75;0.70;;;15.30;96.10;;;;;;5113177;28;20464;-73
2021/10/03 12:29:06;;;;;;;0.40;0.40;;;15.40;96.00;;;;;;5113499;28;20027;-74
2021/10/03 12:31:53;;;;;;;0.30;0.30;;;15.40;96.00;;;;;;5113563;28;20020;-76
2021/10/03 12:34:22;;;;;;;0.40;0.40;;;15.50;96.00;;;;;;5113515;28;20020;-75
2021/10/03 12:36:53;;;;;;;0.40;0.40;;;15.50;96.00;;;;;;5113499;28;20031;-74
2021/10/03 12:39:19;;;;;;;0.82;0.80;;;15.50;95.90;;;;;;5113450;28;20020;-75
2021/10/03 12:41:45;;;;;;;1.13;0.70;;;15.40;95.80;;;;;;5094614;28;20070;-73
2021/10/03 12:44:11;;;;;;;1.42;0.70;;;15.30;95.80;;;;;;5113315;28;20043;-74
2021/10/03 12:46:36;;;;;;;0.50;0.50;;;15.20;96.00;;;;;;5113241;28;20066;-74
2021/10/03 12:49:03;;;;;;;0.80;0.80;;;15.20;96.20;;;;;;5113351;28;20016;-75
2021/10/03 12:51:28;;;;;;;0.80;0.80;;;15.30;96.10;;;;;;5113393;28;20032;-75
2021/10/03 12:53:54;;;;;;;0.90;0.50;;;15.20;95.90;;;;;;5113272;28;20076;-75